createdAt,value
2019-05-20T00:00:07.234Z,0.00
2019-05-20T00:01:07.227Z,0.00
2019-05-20T00:02:21.667Z,0.00
2019-05-20T00:03:08.218Z,0.00
2019-05-20T00:04:07.189Z,0.00
2019-05-20T00:05:07.189Z,0.00
2019-05-20T00:06:07.237Z,0.00
2019-05-20T00:07:07.166Z,0.00
2019-05-20T00:08:07.152Z,0.00
2019-05-20T00:09:07.138Z,0.00
2019-05-20T00:10:07.127Z,0.00
2019-05-20T00:11:07.477Z,0.00
2019-05-20T00:12:07.104Z,0.00
2019-05-20T00:13:07.092Z,0.00
2019-05-20T00:14:07.085Z,0.00
2019-05-20T00:15:07.076Z,0.00
2019-05-20T00:16:07.064Z,0.00
2019-05-20T00:17:07.053Z,0.00
2019-05-20T00:18:07.038Z,0.00
2019-05-20T00:19:07.030Z,0.00
2019-05-20T00:20:07.016Z,0.00
2019-05-20T00:21:07.002Z,0.00
2019-05-20T00:22:06.998Z,0.00
2019-05-20T00:23:06.984Z,0.00
2019-05-20T00:24:06.973Z,0.00
2019-05-20T00:25:06.966Z,0.00
2019-05-20T00:26:06.951Z,0.00
2019-05-20T00:27:06.943Z,0.00
2019-05-20T00:28:06.928Z,0.00
2019-05-20T00:29:06.916Z,0.00
2019-05-20T00:30:06.906Z,0.00
2019-05-20T00:31:06.909Z,0.00
2019-05-20T00:32:06.883Z,0.00
2019-05-20T00:33:06.947Z,0.00
2019-05-20T00:34:06.866Z,0.00
2019-05-20T00:35:06.863Z,0.00
2019-05-20T00:36:06.851Z,0.00
2019-05-20T00:37:06.832Z,0.00
2019-05-20T00:38:06.819Z,0.00
2019-05-20T00:39:06.807Z,0.00
2019-05-20T00:40:06.800Z,0.00
2019-05-20T00:41:06.785Z,0.00
2019-05-20T00:42:06.780Z,0.00
2019-05-20T00:43:06.774Z,0.00
2019-05-20T00:44:06.752Z,0.00
2019-05-20T00:45:06.745Z,0.00
2019-05-20T00:46:06.737Z,0.00
2019-05-20T00:47:06.720Z,0.00
2019-05-20T00:48:06.709Z,0.00
2019-05-20T00:49:06.706Z,0.00
2019-05-20T00:50:06.694Z,0.00
2019-05-20T00:51:06.674Z,0.00
2019-05-20T00:52:06.665Z,0.00
2019-05-20T00:53:06.675Z,0.00
2019-05-20T00:54:06.642Z,0.00
2019-05-20T00:55:06.630Z,0.00
2019-05-20T00:56:06.622Z,0.00
2019-05-20T00:57:06.611Z,0.00
2019-05-20T00:58:06.599Z,0.00
2019-05-20T00:59:06.589Z,0.00
2019-05-20T01:00:06.642Z,0.00
2019-05-20T01:01:06.564Z,0.00
2019-05-20T01:02:06.554Z,0.00
2019-05-20T01:03:06.550Z,0.00
2019-05-20T01:04:06.537Z,0.00
2019-05-20T01:05:06.523Z,0.00
2019-05-20T01:06:06.511Z,0.00
2019-05-20T01:07:06.507Z,0.00
2019-05-20T01:08:06.489Z,0.00
2019-05-20T01:09:06.480Z,0.00
2019-05-20T01:10:06.469Z,0.00
2019-05-20T01:11:06.458Z,0.00
2019-05-20T01:12:06.444Z,0.00
2019-05-20T01:13:06.439Z,0.00
2019-05-20T01:14:06.431Z,0.00
2019-05-20T01:15:06.416Z,0.00
2019-05-20T01:16:06.409Z,0.00
2019-05-20T01:17:06.399Z,0.00
2019-05-20T01:18:06.381Z,0.00
2019-05-20T01:19:06.374Z,0.00
2019-05-20T01:20:06.359Z,0.00
2019-05-20T01:21:06.356Z,0.00
2019-05-20T01:22:06.337Z,0.00
2019-05-20T01:23:06.331Z,0.00
2019-05-20T01:24:06.318Z,0.00
2019-05-20T01:25:06.307Z,0.00
2019-05-20T01:26:06.293Z,0.00
2019-05-20T01:27:06.282Z,0.00
2019-05-20T01:28:06.267Z,0.00
2019-05-20T01:29:06.259Z,0.00
2019-05-20T01:30:06.260Z,0.00
2019-05-20T01:31:06.245Z,0.00
2019-05-20T01:32:06.228Z,0.00
2019-05-20T01:33:13.965Z,0.00
2019-05-20T01:34:07.226Z,0.00
2019-05-20T01:35:06.195Z,0.00
2019-05-20T01:36:06.186Z,0.00
2019-05-20T01:37:06.179Z,0.00
2019-05-20T01:38:06.160Z,0.00
2019-05-20T01:39:06.149Z,0.00
2019-05-20T01:40:06.144Z,0.00
2019-05-20T01:41:06.126Z,0.00
2019-05-20T01:42:06.116Z,0.00
2019-05-20T01:43:06.108Z,0.00
2019-05-20T01:44:06.094Z,0.00
2019-05-20T01:45:06.087Z,0.00
2019-05-20T01:46:06.071Z,0.00
2019-05-20T01:47:06.063Z,0.00
2019-05-20T01:48:06.049Z,0.00
2019-05-20T01:49:06.045Z,0.00
2019-05-20T01:50:06.033Z,0.00
2019-05-20T01:51:06.018Z,0.00
2019-05-20T01:52:06.007Z,0.00
2019-05-20T01:53:05.996Z,0.00
2019-05-20T01:54:05.986Z,0.00
2019-05-20T01:55:05.977Z,0.00
2019-05-20T01:56:05.966Z,0.00
2019-05-20T01:57:05.949Z,0.00
2019-05-20T01:58:05.939Z,0.00
2019-05-20T01:59:05.935Z,0.00
2019-05-20T02:00:05.921Z,0.00
2019-05-20T02:01:05.908Z,0.00
2019-05-20T02:02:05.899Z,0.00
2019-05-20T02:03:05.888Z,0.00
2019-05-20T02:04:05.877Z,0.00
2019-05-20T02:05:05.868Z,0.00
2019-05-20T02:06:05.861Z,0.00
2019-05-20T02:07:05.892Z,0.00
2019-05-20T02:08:05.837Z,0.00
2019-05-20T02:09:05.827Z,0.00
2019-05-20T02:10:05.831Z,0.00
2019-05-20T02:11:05.801Z,0.00
2019-05-20T02:12:05.788Z,0.00
2019-05-20T02:13:05.786Z,0.00
2019-05-20T02:14:05.763Z,0.00
2019-05-20T02:15:05.756Z,0.00
2019-05-20T02:16:05.747Z,0.00
2019-05-20T02:17:05.736Z,0.00
2019-05-20T02:18:05.723Z,0.00
2019-05-20T02:19:05.714Z,0.00
2019-05-20T02:20:05.717Z,0.00
2019-05-20T02:21:05.697Z,0.00
2019-05-20T02:22:05.683Z,0.00
2019-05-20T02:23:05.672Z,0.00
2019-05-20T02:24:05.660Z,0.00
2019-05-20T02:25:05.647Z,0.00
2019-05-20T02:26:05.654Z,0.00
2019-05-20T02:27:05.631Z,0.00
2019-05-20T02:28:05.612Z,0.00
2019-05-20T02:29:05.603Z,0.00
2019-05-20T02:30:05.596Z,0.00
2019-05-20T02:31:05.593Z,0.00
2019-05-20T02:32:05.570Z,0.00
2019-05-20T02:33:05.563Z,0.00
2019-05-20T02:34:05.553Z,0.00
2019-05-20T02:35:05.542Z,0.00
2019-05-20T02:36:05.527Z,0.00
2019-05-20T02:37:05.521Z,0.00
2019-05-20T02:38:05.503Z,0.00
2019-05-20T02:39:05.497Z,0.00
2019-05-20T02:40:05.485Z,0.00
2019-05-20T02:41:05.483Z,0.00
2019-05-20T02:42:05.467Z,0.00
2019-05-20T02:43:05.452Z,0.00
2019-05-20T02:44:05.526Z,0.00
2019-05-20T02:45:05.433Z,0.00
2019-05-20T02:46:05.425Z,0.00
2019-05-20T02:47:05.412Z,0.00
2019-05-20T02:48:05.399Z,0.00
2019-05-20T02:49:05.394Z,0.00
2019-05-20T02:50:05.376Z,0.00
2019-05-20T02:51:05.367Z,0.00
2019-05-20T02:52:05.354Z,0.00
2019-05-20T02:53:05.346Z,0.00
2019-05-20T02:54:05.344Z,0.00
2019-05-20T02:55:05.325Z,0.00
2019-05-20T02:56:05.318Z,0.00
2019-05-20T02:57:05.305Z,0.00
2019-05-20T02:58:05.293Z,0.00
2019-05-20T02:59:05.278Z,0.00
2019-05-20T03:00:05.270Z,0.00
2019-05-20T03:01:05.261Z,0.00
2019-05-20T03:02:05.258Z,0.00
2019-05-20T03:03:05.242Z,0.00
2019-05-20T03:04:12.041Z,0.00
2019-05-20T03:05:06.212Z,0.00
2019-05-20T03:06:05.207Z,0.00
2019-05-20T03:07:05.190Z,0.00
2019-05-20T03:08:05.187Z,0.00
2019-05-20T03:09:05.169Z,0.00
2019-05-20T03:10:05.159Z,0.00
2019-05-20T03:11:05.149Z,0.00
2019-05-20T03:12:05.138Z,0.00
2019-05-20T03:13:05.129Z,0.00
2019-05-20T03:14:05.149Z,0.00
2019-05-20T03:15:05.101Z,0.00
2019-05-20T03:16:05.103Z,0.00
2019-05-20T03:17:05.093Z,4.00
2019-05-20T03:18:05.071Z,4.00
2019-05-20T03:19:05.064Z,4.00
2019-05-20T03:20:05.049Z,4.00
2019-05-20T03:21:05.042Z,4.00
2019-05-20T03:22:05.035Z,8.00
2019-05-20T03:23:05.016Z,8.00
2019-05-20T03:24:05.006Z,12.00
2019-05-20T03:25:04.998Z,16.00
2019-05-20T03:26:04.986Z,12.00
2019-05-20T03:27:04.974Z,20.00
2019-05-20T03:28:04.962Z,24.00
2019-05-20T03:29:04.954Z,28.00
2019-05-20T03:30:04.950Z,32.00
2019-05-20T03:31:04.937Z,40.00
2019-05-20T03:32:04.936Z,52.00
2019-05-20T03:33:04.924Z,60.00
2019-05-20T03:34:04.899Z,72.00
2019-05-20T03:35:04.892Z,80.00
2019-05-20T03:36:04.885Z,88.00
2019-05-20T03:37:04.866Z,92.00
2019-05-20T03:38:04.856Z,108.00
2019-05-20T03:39:04.852Z,116.00
2019-05-20T03:40:04.831Z,128.00
2019-05-20T03:41:04.874Z,148.00
2019-05-20T03:42:04.813Z,168.00
2019-05-20T03:43:04.800Z,184.00
2019-05-20T03:44:04.786Z,212.00
2019-05-20T03:45:04.777Z,236.00
2019-05-20T03:46:04.766Z,264.00
2019-05-20T03:47:04.759Z,296.00
2019-05-20T03:48:04.749Z,340.00
2019-05-20T03:49:04.736Z,380.00
2019-05-20T03:50:04.739Z,420.00
2019-05-20T03:51:04.713Z,448.00
2019-05-20T03:52:04.707Z,476.00
2019-05-20T03:53:04.688Z,500.00
2019-05-20T03:54:04.697Z,516.00
2019-05-20T03:55:04.672Z,540.00
2019-05-20T03:56:04.664Z,556.00
2019-05-20T03:57:04.646Z,580.00
2019-05-20T03:58:04.638Z,620.00
2019-05-20T03:59:04.624Z,672.00
2019-05-20T04:00:04.628Z,708.00
2019-05-20T04:01:04.609Z,772.00
2019-05-20T04:02:04.603Z,876.00
2019-05-20T04:03:04.582Z,964.00
2019-05-20T04:04:04.574Z,1048.00
2019-05-20T04:05:04.577Z,1120.00
2019-05-20T04:06:04.548Z,1172.00
2019-05-20T04:07:04.606Z,1192.00
2019-05-20T04:08:04.572Z,1232.00
2019-05-20T04:09:04.516Z,1232.00
2019-05-20T04:10:04.525Z,1184.00
2019-05-20T04:11:04.506Z,1108.00
2019-05-20T04:12:04.486Z,1000.00
2019-05-20T04:13:04.480Z,880.00
2019-05-20T04:14:04.465Z,832.00
2019-05-20T04:15:04.448Z,860.00
2019-05-20T04:16:04.440Z,916.00
2019-05-20T04:17:04.429Z,972.00
2019-05-20T04:18:04.422Z,1100.00
2019-05-20T04:19:04.409Z,1272.00
2019-05-20T04:20:04.404Z,1488.00
2019-05-20T04:21:04.390Z,1664.00
2019-05-20T04:22:04.385Z,1780.00
2019-05-20T04:23:04.366Z,1848.00
2019-05-20T04:24:04.356Z,1856.00
2019-05-20T04:25:04.349Z,1960.00
2019-05-20T04:26:04.339Z,2100.00
2019-05-20T04:27:04.328Z,2152.00
2019-05-20T04:28:04.335Z,2188.00
2019-05-20T04:29:04.297Z,2192.00
2019-05-20T04:30:04.290Z,2124.00
2019-05-20T04:31:04.279Z,1972.00
2019-05-20T04:32:04.272Z,1896.00
2019-05-20T04:33:04.270Z,1880.00
2019-05-20T04:34:04.248Z,1808.00
2019-05-20T04:35:20.401Z,1692.00
2019-05-20T04:36:05.224Z,1620.00
2019-05-20T04:37:04.213Z,1600.00
2019-05-20T04:38:04.202Z,1572.00
2019-05-20T04:39:04.190Z,1560.00
2019-05-20T04:40:04.180Z,1636.00
2019-05-20T04:41:04.172Z,1764.00
2019-05-20T04:42:06.638Z,1916.00
2019-05-20T04:43:04.148Z,2168.00
2019-05-20T04:44:04.140Z,2336.00
2019-05-20T04:45:04.126Z,2484.00
2019-05-20T04:46:04.112Z,2844.00
2019-05-20T04:47:04.103Z,3276.00
2019-05-20T04:48:04.095Z,3584.00
2019-05-20T04:49:04.081Z,3844.00
2019-05-20T04:50:04.078Z,4132.00
2019-05-20T04:51:04.057Z,4340.00
2019-05-20T04:52:04.056Z,4436.00
2019-05-20T04:53:04.039Z,4596.00
2019-05-20T04:54:04.027Z,4756.00
2019-05-20T04:55:04.020Z,4868.00
2019-05-20T04:56:04.006Z,4872.00
2019-05-20T04:57:03.997Z,4748.00
2019-05-20T04:58:04.004Z,4652.00
2019-05-20T04:59:03.971Z,4700.00
2019-05-20T05:00:03.964Z,4900.00
2019-05-20T05:01:03.997Z,5220.00
2019-05-20T05:02:03.936Z,5516.00
2019-05-20T05:03:03.928Z,5784.00
2019-05-20T05:04:03.918Z,6196.00
2019-05-20T05:05:03.909Z,6416.00
2019-05-20T05:06:03.901Z,6656.00
2019-05-20T05:07:03.881Z,6808.00
2019-05-20T05:08:03.871Z,6940.00
2019-05-20T05:09:04.147Z,7032.00
2019-05-20T05:10:03.852Z,7068.00
2019-05-20T05:11:03.844Z,7064.00
2019-05-20T05:12:03.830Z,7000.00
2019-05-20T05:13:03.816Z,6616.00
2019-05-20T05:14:03.809Z,6136.00
2019-05-20T05:15:07.732Z,5980.00
2019-05-20T05:16:03.782Z,6096.00
2019-05-20T05:17:03.775Z,6388.00
2019-05-20T05:18:03.760Z,7012.00
2019-05-20T05:19:03.754Z,7524.00
2019-05-20T05:20:03.739Z,7892.00
2019-05-20T05:21:03.752Z,8036.00
2019-05-20T05:22:03.718Z,7732.00
2019-05-20T05:23:03.710Z,7412.00
2019-05-20T05:24:03.699Z,7252.00
2019-05-20T05:25:03.686Z,6908.00
2019-05-20T05:26:03.677Z,6444.00
2019-05-20T05:27:03.671Z,6120.00
2019-05-20T05:28:03.654Z,5812.00
2019-05-20T05:29:03.647Z,5976.00
2019-05-20T05:30:03.636Z,5956.00
2019-05-20T05:31:03.622Z,5832.00
2019-05-20T05:32:03.605Z,6464.00
2019-05-20T05:33:03.614Z,6752.00
2019-05-20T05:34:03.594Z,6868.00
2019-05-20T05:35:03.575Z,7160.00
2019-05-20T05:36:03.562Z,7364.00
2019-05-20T05:37:03.553Z,7848.00
2019-05-20T05:38:03.617Z,8468.00
2019-05-20T05:39:03.534Z,9132.00
2019-05-20T05:40:07.737Z,10140.00
2019-05-20T05:41:03.579Z,10200.00
2019-05-20T05:42:03.625Z,10092.00
2019-05-20T05:43:03.491Z,10284.00
2019-05-20T05:44:03.484Z,10752.00
2019-05-20T05:45:03.471Z,10828.00
2019-05-20T05:46:03.459Z,10800.00
2019-05-20T05:47:03.455Z,10924.00
2019-05-20T05:48:03.445Z,10428.00
2019-05-20T05:49:03.429Z,10632.00
2019-05-20T05:50:03.415Z,10752.00
2019-05-20T05:51:03.403Z,11376.00
2019-05-20T05:52:03.397Z,12468.00
2019-05-20T05:53:03.380Z,12600.00
2019-05-20T05:54:03.380Z,13260.00
2019-05-20T05:55:03.364Z,14384.00
2019-05-20T05:56:03.350Z,15928.00
2019-05-20T05:57:03.337Z,17824.00
2019-05-20T05:58:03.324Z,18944.00
2019-05-20T05:59:03.316Z,19232.00
2019-05-20T06:00:03.313Z,19168.00
2019-05-20T06:01:03.302Z,18880.00
2019-05-20T06:02:03.285Z,19008.00
2019-05-20T06:03:03.310Z,19008.00
2019-05-20T06:04:03.258Z,19360.00
2019-05-20T06:05:03.250Z,20416.00
2019-05-20T06:06:12.330Z,19520.00
2019-05-20T06:07:04.227Z,19296.00
2019-05-20T06:08:03.226Z,19136.00
2019-05-20T06:09:03.214Z,19680.00
2019-05-20T06:10:03.193Z,19904.00
2019-05-20T06:11:03.181Z,19680.00
2019-05-20T06:12:03.173Z,19456.00
2019-05-20T06:13:03.197Z,19008.00
2019-05-20T06:14:03.151Z,18496.00
2019-05-20T06:15:03.139Z,18176.00
2019-05-20T06:16:03.131Z,17984.00
2019-05-20T06:17:03.119Z,17824.00
2019-05-20T06:18:03.105Z,17792.00
2019-05-20T06:19:03.094Z,17120.00
2019-05-20T06:20:03.090Z,15108.00
2019-05-20T06:21:03.083Z,13064.00
2019-05-20T06:22:03.083Z,11608.00
2019-05-20T06:23:03.054Z,11108.00
2019-05-20T06:24:03.042Z,11416.00
2019-05-20T06:25:03.422Z,12048.00
2019-05-20T06:26:03.019Z,12048.00
2019-05-20T06:27:03.006Z,11376.00
2019-05-20T06:28:02.994Z,10848.00
2019-05-20T06:29:03.163Z,10980.00
2019-05-20T06:30:02.978Z,11020.00
2019-05-20T06:31:02.966Z,10884.00
2019-05-20T06:32:02.962Z,11284.00
2019-05-20T06:33:02.948Z,12080.00
2019-05-20T06:34:02.933Z,13204.00
2019-05-20T06:35:02.943Z,14124.00
2019-05-20T06:36:02.969Z,14732.00
2019-05-20T06:37:02.918Z,15392.00
2019-05-20T06:38:02.890Z,16864.00
2019-05-20T06:39:02.880Z,17568.00
2019-05-20T06:40:02.863Z,17344.00
2019-05-20T06:41:02.860Z,17248.00
2019-05-20T06:42:02.850Z,17152.00
2019-05-20T06:43:02.839Z,17440.00
2019-05-20T06:44:02.823Z,18848.00
2019-05-20T06:45:02.814Z,20704.00
2019-05-20T06:46:02.807Z,22432.00
2019-05-20T06:47:02.794Z,23968.00
2019-05-20T06:48:02.782Z,25376.00
2019-05-20T06:49:02.764Z,25760.00
2019-05-20T06:50:02.759Z,24896.00
2019-05-20T06:51:02.750Z,23968.00
2019-05-20T06:52:02.730Z,24128.00
2019-05-20T06:53:02.743Z,25024.00
2019-05-20T06:54:02.711Z,26112.00
2019-05-20T06:55:02.705Z,28736.00
2019-05-20T06:56:02.693Z,31616.00
2019-05-20T06:57:02.693Z,33376.00
2019-05-20T06:58:02.666Z,34016.00
2019-05-20T06:59:02.669Z,33760.00
2019-05-20T07:00:02.656Z,33728.00
2019-05-20T07:01:02.634Z,35392.00
2019-05-20T07:02:02.648Z,36544.00
2019-05-20T07:03:02.616Z,35488.00
2019-05-20T07:04:02.610Z,33280.00
2019-05-20T07:05:02.592Z,29984.00
2019-05-20T07:06:02.580Z,28960.00
2019-05-20T07:07:12.465Z,30400.00
2019-05-20T07:08:03.560Z,31968.00
2019-05-20T07:09:02.549Z,33600.00
2019-05-20T07:10:02.549Z,35264.00
2019-05-20T07:11:02.527Z,34176.00
2019-05-20T07:12:02.552Z,33376.00
2019-05-20T07:13:02.504Z,33184.00
2019-05-20T07:14:02.502Z,31680.00
2019-05-20T07:15:02.952Z,31936.00
2019-05-20T07:16:02.480Z,33728.00
2019-05-20T07:17:02.469Z,35456.00
2019-05-20T07:18:02.474Z,37248.00
2019-05-20T07:19:02.443Z,38304.00
2019-05-20T07:20:02.431Z,39904.00
2019-05-20T07:21:02.420Z,38528.00
2019-05-20T07:22:02.415Z,35040.00
2019-05-20T07:23:02.395Z,31424.00
2019-05-20T07:24:02.382Z,29440.00
2019-05-20T07:25:02.545Z,28992.00
2019-05-20T07:26:02.371Z,29248.00
2019-05-20T07:27:02.362Z,30144.00
2019-05-20T07:28:02.360Z,32800.00
2019-05-20T07:29:02.332Z,36256.00
2019-05-20T07:30:02.321Z,39808.00
2019-05-20T07:31:02.304Z,46368.00
2019-05-20T07:32:02.305Z,51200.00
2019-05-20T07:33:02.289Z,62432.00
2019-05-20T07:34:02.274Z,57024.00
2019-05-20T07:35:02.271Z,56320.00
2019-05-20T07:36:02.253Z,54400.00
2019-05-20T07:37:03.960Z,71200.00
2019-05-20T07:38:02.243Z,52352.00
2019-05-20T07:39:02.232Z,50880.00
2019-05-20T07:40:02.277Z,48384.00
2019-05-20T07:41:02.196Z,54592.00
2019-05-20T07:42:02.194Z,65824.00
2019-05-20T07:43:02.227Z,53184.00
2019-05-20T07:44:02.323Z,58368.00
2019-05-20T07:45:02.420Z,44288.00
2019-05-20T07:46:02.146Z,38336.00
2019-05-20T07:47:02.150Z,34816.00
2019-05-20T07:48:02.135Z,36128.00
2019-05-20T07:49:02.464Z,41344.00
2019-05-20T07:50:02.103Z,52736.00
2019-05-20T07:51:02.097Z,61536.00
2019-05-20T07:52:02.088Z,47264.00
2019-05-20T07:53:02.079Z,85248.00
2019-05-20T07:54:02.314Z,56256.00
2019-05-20T07:55:02.078Z,81472.00
2019-05-20T07:56:02.270Z,46784.00
2019-05-20T07:57:02.030Z,61344.00
2019-05-20T07:58:02.031Z,123968.00
2019-05-20T07:59:02.003Z,133216.00
2019-05-20T08:00:02.012Z,130144.00
2019-05-20T08:01:01.986Z,150176.00
2019-05-20T08:02:01.983Z,153472.00
2019-05-20T08:03:01.963Z,134784.00
2019-05-20T08:04:01.981Z,125696.00
2019-05-20T08:05:02.160Z,117664.00
2019-05-20T08:06:01.933Z,42752.00
2019-05-20T08:07:26.268Z,112096.00
2019-05-20T08:08:02.913Z,102624.00
2019-05-20T08:09:01.934Z,96864.00
2019-05-20T08:10:02.145Z,93696.00
2019-05-20T08:11:01.880Z,87552.00
2019-05-20T08:12:01.874Z,60512.00
2019-05-20T08:13:01.862Z,44032.00
2019-05-20T08:14:01.845Z,49792.00
2019-05-20T08:15:01.861Z,105600.00
2019-05-20T08:16:01.846Z,108096.00
2019-05-20T08:17:01.826Z,113792.00
2019-05-20T08:18:01.820Z,94336.00
2019-05-20T08:19:01.824Z,118240.00
2019-05-20T08:20:01.803Z,73952.00
2019-05-20T08:21:01.774Z,134976.00
2019-05-20T08:22:01.765Z,43360.00
2019-05-20T08:23:02.253Z,84640.00
2019-05-20T08:24:02.172Z,44672.00
2019-05-20T08:25:01.798Z,115168.00
2019-05-20T08:26:01.720Z,120032.00
2019-05-20T08:27:01.853Z,38720.00
2019-05-20T08:28:01.700Z,32832.00
2019-05-20T08:29:01.695Z,29600.00
2019-05-20T08:30:01.855Z,32160.00
2019-05-20T08:31:01.688Z,76864.00
2019-05-20T08:32:01.663Z,136864.00
2019-05-20T08:33:01.647Z,52512.00
2019-05-20T08:34:01.638Z,64160.00
2019-05-20T08:35:01.918Z,145728.00
2019-05-20T08:36:01.671Z,147808.00
2019-05-20T08:37:01.611Z,145856.00
2019-05-20T08:38:01.599Z,49856.00
2019-05-20T08:39:01.604Z,48672.00
2019-05-20T08:40:01.631Z,50592.00
2019-05-20T08:41:01.572Z,62752.00
2019-05-20T08:42:01.723Z,63552.00
2019-05-20T08:43:01.552Z,43488.00
2019-05-20T08:44:01.535Z,42272.00
2019-05-20T08:45:01.554Z,39008.00
2019-05-20T08:46:01.517Z,34624.00
2019-05-20T08:47:01.660Z,35392.00
2019-05-20T08:48:01.501Z,37888.00
2019-05-20T08:49:01.488Z,38144.00
2019-05-20T08:50:02.193Z,41920.00
2019-05-20T08:51:01.461Z,47168.00
2019-05-20T08:52:01.461Z,133856.00
2019-05-20T08:53:01.454Z,143616.00
2019-05-20T08:54:01.431Z,34592.00
2019-05-20T08:55:01.740Z,30112.00
2019-05-20T08:56:01.442Z,27200.00
2019-05-20T08:57:01.434Z,26176.00
2019-05-20T08:58:01.406Z,24864.00
2019-05-20T08:59:01.389Z,23296.00
2019-05-20T09:00:01.373Z,22496.00
2019-05-20T09:01:01.363Z,21280.00
2019-05-20T09:02:01.351Z,20800.00
2019-05-20T09:03:01.338Z,21376.00
2019-05-20T09:04:01.338Z,22144.00
2019-05-20T09:05:01.327Z,21568.00
2019-05-20T09:06:01.367Z,20896.00
2019-05-20T09:07:01.292Z,20000.00
2019-05-20T09:08:03.482Z,19776.00
2019-05-20T09:09:01.284Z,20992.00
2019-05-20T09:10:01.282Z,22208.00
2019-05-20T09:11:01.258Z,22880.00
2019-05-20T09:12:01.251Z,25024.00
2019-05-20T09:13:01.235Z,29600.00
2019-05-20T09:14:01.218Z,37440.00
2019-05-20T09:15:01.209Z,53792.00
2019-05-20T09:16:01.204Z,92896.00
2019-05-20T09:17:01.197Z,96832.00
2019-05-20T09:18:01.182Z,143200.00
2019-05-20T09:19:01.192Z,85600.00
2019-05-20T09:20:01.191Z,82176.00
2019-05-20T09:21:01.147Z,66304.00
2019-05-20T09:22:01.173Z,55040.00
2019-05-20T09:23:02.755Z,59520.00
2019-05-20T09:24:01.116Z,60384.00
2019-05-20T09:25:01.166Z,61472.00
2019-05-20T09:26:01.112Z,68256.00
2019-05-20T09:27:01.143Z,53568.00
2019-05-20T09:28:01.108Z,54688.00
2019-05-20T09:29:01.075Z,56992.00
2019-05-20T09:30:01.057Z,49600.00
2019-05-20T09:31:01.050Z,42880.00
2019-05-20T09:32:01.051Z,37728.00
2019-05-20T09:33:01.038Z,33600.00
2019-05-20T09:34:01.014Z,32288.00
2019-05-20T09:35:01.000Z,33056.00
2019-05-20T09:36:01.009Z,34592.00
2019-05-20T09:37:00.986Z,34240.00
2019-05-20T09:38:00.981Z,34272.00
2019-05-20T09:39:00.964Z,34176.00
2019-05-20T09:40:00.984Z,32832.00
2019-05-20T09:41:00.940Z,32128.00
2019-05-20T09:42:00.922Z,33600.00
2019-05-20T09:43:00.922Z,42144.00
2019-05-20T09:44:00.910Z,58240.00
2019-05-20T09:45:03.055Z,57664.00
2019-05-20T09:46:07.549Z,68288.00
2019-05-20T09:47:01.870Z,86112.00
2019-05-20T09:48:00.889Z,86080.00
2019-05-20T09:49:00.860Z,67200.00
2019-05-20T09:50:00.846Z,69024.00
2019-05-20T09:51:00.833Z,64128.00
2019-05-20T09:52:00.866Z,54848.00
2019-05-20T09:53:00.818Z,53344.00
2019-05-20T09:54:00.798Z,47552.00
2019-05-20T09:55:00.797Z,43328.00
2019-05-20T09:56:00.804Z,41696.00
2019-05-20T09:57:00.776Z,42144.00
2019-05-20T09:58:00.770Z,43808.00
2019-05-20T09:59:00.745Z,46592.00
2019-05-20T10:00:00.736Z,49248.00
2019-05-20T10:01:00.741Z,54944.00
2019-05-20T10:02:00.722Z,56032.00
2019-05-20T10:03:00.787Z,53632.00
2019-05-20T10:04:00.699Z,49024.00
2019-05-20T10:05:00.698Z,50080.00
2019-05-20T10:06:00.694Z,55552.00
2019-05-20T10:07:00.676Z,60000.00
2019-05-20T10:08:00.657Z,72032.00
2019-05-20T10:09:00.649Z,68864.00
2019-05-20T10:10:00.641Z,89888.00
2019-05-20T10:11:01.454Z,106144.00
2019-05-20T10:12:00.613Z,65856.00
2019-05-20T10:13:00.650Z,64608.00
2019-05-20T10:14:00.600Z,69888.00
2019-05-20T10:15:00.595Z,84224.00
2019-05-20T10:16:00.579Z,77504.00
2019-05-20T10:17:00.565Z,70720.00
2019-05-20T10:18:00.561Z,62112.00
2019-05-20T10:19:00.542Z,50560.00
2019-05-20T10:20:00.541Z,41312.00
2019-05-20T10:21:00.522Z,34592.00
2019-05-20T10:22:00.522Z,30176.00
2019-05-20T10:23:00.508Z,27168.00
2019-05-20T10:24:00.497Z,24832.00
2019-05-20T10:25:00.484Z,23712.00
2019-05-20T10:26:00.469Z,23872.00
2019-05-20T10:27:00.460Z,24096.00
2019-05-20T10:28:00.454Z,24096.00
2019-05-20T10:29:00.448Z,24064.00
2019-05-20T10:30:00.432Z,24224.00
2019-05-20T10:31:00.419Z,24576.00
2019-05-20T10:32:00.413Z,24864.00
2019-05-20T10:33:00.396Z,24896.00
2019-05-20T10:34:00.386Z,24352.00
2019-05-20T10:35:00.375Z,23616.00
2019-05-20T10:36:00.364Z,22336.00
2019-05-20T10:37:00.363Z,20512.00
2019-05-20T10:38:00.405Z,18784.00
2019-05-20T10:39:00.347Z,17568.00
2019-05-20T10:40:00.323Z,16736.00
2019-05-20T10:41:00.321Z,16416.00
2019-05-20T10:42:00.302Z,16672.00
2019-05-20T10:43:00.295Z,17472.00
2019-05-20T10:44:00.278Z,18432.00
2019-05-20T10:45:00.270Z,20224.00
2019-05-20T10:46:00.260Z,23552.00
2019-05-20T10:47:00.254Z,27232.00
2019-05-20T10:48:00.239Z,28288.00
2019-05-20T10:49:00.228Z,27488.00
2019-05-20T10:50:00.236Z,25952.00
2019-05-20T10:51:00.204Z,25088.00
2019-05-20T10:52:00.200Z,23648.00
2019-05-20T10:53:00.187Z,22720.00
2019-05-20T10:54:00.174Z,20864.00
2019-05-20T10:55:00.161Z,18976.00
2019-05-20T10:56:00.458Z,16992.00
2019-05-20T10:57:00.158Z,15472.00
2019-05-20T10:58:00.132Z,14740.00
2019-05-20T10:59:00.127Z,14496.00
2019-05-20T11:00:00.118Z,14468.00
2019-05-20T11:01:03.502Z,13980.00
2019-05-20T11:02:00.090Z,13304.00
2019-05-20T11:03:00.085Z,12752.00
2019-05-20T11:04:00.068Z,12308.00
2019-05-20T11:05:00.051Z,12024.00
2019-05-20T11:06:00.043Z,12316.00
2019-05-20T11:07:00.043Z,12956.00
2019-05-20T11:08:00.046Z,13812.00
2019-05-20T11:09:13.015Z,14944.00
2019-05-20T11:10:00.998Z,16124.00
2019-05-20T11:10:59.990Z,17280.00
2019-05-20T11:11:59.979Z,17952.00
2019-05-20T11:12:59.967Z,18560.00
2019-05-20T11:13:59.957Z,19360.00
2019-05-20T11:14:59.946Z,19840.00
2019-05-20T11:15:59.938Z,20224.00
2019-05-20T11:16:59.927Z,20512.00
2019-05-20T11:17:59.917Z,20992.00
2019-05-20T11:18:59.917Z,21600.00
2019-05-20T11:19:59.893Z,22560.00
2019-05-20T11:20:59.882Z,22944.00
2019-05-20T11:21:59.878Z,22816.00
2019-05-20T11:23:01.207Z,22688.00
2019-05-20T11:23:59.851Z,22592.00
2019-05-20T11:24:59.847Z,22624.00
2019-05-20T11:25:59.827Z,22688.00
2019-05-20T11:26:59.819Z,22848.00
2019-05-20T11:27:59.810Z,22816.00
2019-05-20T11:28:59.793Z,22688.00
2019-05-20T11:29:59.784Z,22176.00
2019-05-20T11:30:59.781Z,21568.00
2019-05-20T11:31:59.772Z,20928.00
2019-05-20T11:32:59.749Z,20288.00
2019-05-20T11:33:59.741Z,19872.00
2019-05-20T11:34:59.732Z,19776.00
2019-05-20T11:35:59.721Z,19904.00
2019-05-20T11:36:59.706Z,20224.00
2019-05-20T11:37:59.709Z,20608.00
2019-05-20T11:38:59.695Z,21376.00
2019-05-20T11:39:59.673Z,22528.00
2019-05-20T11:40:59.664Z,23904.00
2019-05-20T11:41:59.655Z,25440.00
2019-05-20T11:42:59.652Z,26848.00
2019-05-20T11:43:59.635Z,28256.00
2019-05-20T11:44:59.621Z,29792.00
2019-05-20T11:45:59.612Z,31360.00
2019-05-20T11:46:59.601Z,32960.00
2019-05-20T11:47:59.601Z,34496.00
2019-05-20T11:48:59.580Z,36032.00
2019-05-20T11:49:59.564Z,37408.00
2019-05-20T11:50:59.554Z,38592.00
2019-05-20T11:51:59.540Z,39360.00
2019-05-20T11:52:59.571Z,39648.00
2019-05-20T11:53:59.523Z,39840.00
2019-05-20T11:54:59.517Z,39904.00
2019-05-20T11:55:59.500Z,40320.00
2019-05-20T11:56:59.484Z,41696.00
2019-05-20T11:58:14.449Z,44032.00
2019-05-20T11:59:00.467Z,47072.00
2019-05-20T11:59:59.454Z,51072.00
2019-05-20T12:00:59.445Z,54336.00
2019-05-20T12:02:03.708Z,58720.00
2019-05-20T12:02:59.431Z,62080.00
2019-05-20T12:03:59.414Z,74432.00
2019-05-20T12:04:59.404Z,84192.00
2019-05-20T12:05:59.398Z,96832.00
2019-05-20T12:06:59.381Z,84512.00
2019-05-20T12:07:59.369Z,72224.00
2019-05-20T12:08:59.365Z,63904.00
2019-05-20T12:09:59.348Z,57504.00
2019-05-20T12:10:59.340Z,55360.00
2019-05-20T12:11:59.327Z,54688.00
2019-05-20T12:12:59.313Z,55776.00